Time;durP1;ratioP1;P1;durP2;ratioP2;P2;SDS_P1;SDS_P2;PMS_P1;PMS_P2;Temp;Humidity;BMP_temperature;BMP_pressure;BME280_temperature;BME280_humidity;BME280_pressure;Samples;Min_cycle;Max_cycle;Signal;HPM_P1;HPM_P2
2023/06/19 00:01:05;;;;;;;;;;;;;;;24.35;39.38;101429.47;5084184;28;20351;-78
2023/06/19 00:03:30;;;;;;;;;;;;;;;24.32;39.30;101426.59;5082832;28;20389;-78
2023/06/19 00:05:56;;;;;;;;;;;;;;;24.29;39.39;101421.78;5083769;28;19926;-78
2023/06/19 00:08:21;;;;;;;;;;;;;;;24.27;39.28;101421.25;5084592;28;19985;-78
2023/06/19 00:10:47;;;;;;;;;;;;;;;24.25;39.38;101421.59;5065479;28;19916;-78
2023/06/19 00:13:13;;;;;;;;;;;;;;;24.23;39.43;101420.28;5081498;28;19916;-78
2023/06/19 00:15:38;;;;;;;;;;;;;;;24.19;39.43;101422.88;5078562;28;20391;-77
2023/06/19 00:18:04;;;;;;;;;;;;;;;24.15;39.58;101419.16;5082071;28;19923;-78
2023/06/19 00:20:29;;;;;;;;;;;;;;;24.11;39.42;101423.69;5079731;28;20396;-78
2023/06/19 00:22:54;;;;;;;;;;;;;;;24.09;39.50;101423.22;5082660;28;19971;-78
2023/06/19 00:25:20;;;;;;;;;;;;;;;24.05;39.47;101419.47;5081580;28;19927;-78
2023/06/19 00:27:46;;;;;;;;;;;;;;;24.02;39.78;101423.69;5080417;28;19917;-77
2023/06/19 00:30:11;;;;;;;;;;;;;;;23.96;39.91;101426.91;5084985;28;19924;-78
2023/06/19 00:32:46;;;;;;;;;;;;;;;23.88;39.83;101412.09;5083837;28;19961;-78
2023/06/19 00:35:12;;;;;;;;;;;;;;;23.83;39.94;101412.25;5084311;28;19924;-78
2023/06/19 00:37:37;;;;;;;;;;;;;;;23.80;40.04;101418.38;5083832;28;19920;-78
2023/06/19 00:40:03;;;;;;;;;;;;;;;23.77;39.83;101419.81;5087623;28;20437;-77
2023/06/19 00:42:28;;;;;;;;;;;;;;;23.74;40.01;101414.19;5081270;28;19916;-78
2023/06/19 00:44:53;;;;;;;;;;;;;;;23.70;40.02;101419.50;5085715;28;19973;-78
2023/06/19 00:47:19;;;;;;;;;;;;;;;23.68;40.25;101420.91;5081320;28;19970;-78
2023/06/19 00:49:44;;;;;;;;;;;;;;;23.65;40.00;101425.09;5078528;28;19920;-78
2023/06/19 00:52:09;;;;;;;;;;;;;;;23.62;40.28;101417.53;5079543;28;19961;-78
2023/06/19 00:54:35;;;;;;;;;;;;;;;23.59;40.21;101415.44;5066904;28;20379;-78
2023/06/19 00:57:00;;;;;;;;;;;;;;;23.58;40.09;101419.31;5078975;28;20363;-78
2023/06/19 00:59:26;;;;;;;;;;;;;;;23.55;40.28;101416.38;5079207;28;20410;-78
2023/06/19 01:01:51;;;;;;;;;;;;;;;23.50;40.02;101415.38;5073605;28;20783;-79
2023/06/19 01:04:16;;;;;;;;;;;;;;;23.45;40.12;101412.81;5079989;28;19964;-78
2023/06/19 01:06:42;;;;;;;;;;;;;;;23.41;40.12;101416.50;5079411;28;19916;-78
2023/06/19 01:09:10;;;;;;;;;;;;;;;23.39;40.28;101421.50;5085435;28;20375;-78
2023/06/19 01:11:56;;;;;;;;;;;;;;;23.38;40.20;101411.69;5074465;28;20444;-78
2023/06/19 01:14:25;;;;;;;;;;;;;;;23.34;40.43;101410.69;5082298;28;19931;-78
2023/06/19 01:16:51;;;;;;;;;;;;;;;23.28;40.76;101418.22;5079888;28;20474;-78
2023/06/19 01:19:19;;;;;;;;;;;;;;;23.23;40.60;101420.31;5081935;28;19948;-78
2023/06/19 01:21:46;;;;;;;;;;;;;;;23.16;40.73;101418.03;5082304;28;19935;-78
2023/06/19 01:24:11;;;;;;;;;;;;;;;23.10;40.78;101420.09;5079379;28;19920;-77
2023/06/19 01:26:37;;;;;;;;;;;;;;;23.08;40.80;101429.75;5078625;28;20065;-78
2023/06/19 01:29:03;;;;;;;;;;;;;;;23.06;40.61;101429.25;5083218;28;20363;-78
2023/06/19 01:31:35;;;;;;;;;;;;;;;23.07;40.80;101428.13;5079953;28;19921;-77
2023/06/19 01:34:01;;;;;;;;;;;;;;;23.05;40.75;101425.72;5081927;28;20007;-78
2023/06/19 01:36:27;;;;;;;;;;;;;;;23.05;40.97;101430.38;5078294;28;19938;-77
2023/06/19 01:38:54;;;;;;;;;;;;;;;23.04;40.62;101432.31;5079091;28;20011;-78
2023/06/19 01:41:21;;;;;;;;;;;;;;;23.04;40.68;101423.31;5083368;28;19923;-78
2023/06/19 01:43:47;;;;;;;;;;;;;;;23.02;40.62;101423.63;5081589;28;19968;-78
2023/06/19 01:46:12;;;;;;;;;;;;;;;22.99;40.79;101413.34;5075982;28;19974;-78
2023/06/19 01:48:38;;;;;;;;;;;;;;;22.96;40.81;101416.66;5081460;28;19960;-78
2023/06/19 01:51:03;;;;;;;;;;;;;;;22.91;40.72;101406.69;5083000;28;19923;-78
2023/06/19 01:53:32;;;;;;;;;;;;;;;22.89;40.76;101411.66;5081251;28;19928;-78
2023/06/19 01:55:58;;;;;;;;;;;;;;;22.87;41.08;101413.09;5081915;28;20289;-77
2023/06/19 01:58:23;;;;;;;;;;;;;;;22.82;40.98;101410.53;5088122;28;19927;-78
2023/06/19 02:00:48;;;;;;;;;;;;;;;22.80;41.04;101405.34;5081182;28;19920;-78
2023/06/19 02:03:14;;;;;;;;;;;;;;;22.78;41.04;101404.03;5077557;28;19959;-78
2023/06/19 02:05:39;;;;;;;;;;;;;;;22.77;41.16;101405.13;5084386;28;20058;-77
2023/06/19 02:08:05;;;;;;;;;;;;;;;22.75;40.93;101399.19;5077249;28;19927;-78
2023/06/19 02:10:30;;;;;;;;;;;;;;;22.73;41.04;101399.50;5082415;28;20453;-78
2023/06/19 02:12:56;;;;;;;;;;;;;;;22.71;41.08;101409.94;5077643;28;19920;-78
2023/06/19 02:15:21;;;;;;;;;;;;;;;22.70;40.92;101413.00;5078054;28;19968;-77
2023/06/19 02:17:46;;;;;;;;;;;;;;;22.66;41.09;101398.34;5078733;28;20306;-78
2023/06/19 02:20:12;;;;;;;;;;;;;;;22.67;41.11;101413.63;5080065;28;19920;-78
2023/06/19 02:22:38;;;;;;;;;;;;;;;22.65;40.95;101407.66;5077345;28;19924;-79
2023/06/19 02:25:03;;;;;;;;;;;;;;;22.63;40.92;101407.19;5077284;28;19931;-78
2023/06/19 02:27:28;;;;;;;;;;;;;;;22.59;41.29;101396.84;5080429;28;19920;-79
2023/06/19 02:29:54;;;;;;;;;;;;;;;22.56;41.48;101402.94;5076771;28;19924;-78
2023/06/19 02:32:19;;;;;;;;;;;;;;;22.54;41.36;101397.00;5076607;28;19920;-79
2023/06/19 02:34:45;;;;;;;;;;;;;;;22.53;41.30;101397.31;5080360;28;19920;-79
2023/06/19 02:37:10;;;;;;;;;;;;;;;22.47;41.43;101393.91;5077805;28;19924;-79
2023/06/19 02:39:35;;;;;;;;;;;;;;;22.45;41.23;101385.22;5074531;28;20834;-79
2023/06/19 02:42:01;;;;;;;;;;;;;;;22.42;41.60;101391.28;5083078;28;19958;-79
2023/06/19 02:44:26;;;;;;;;;;;;;;;22.39;41.37;101375.53;5077540;28;19951;-79
2023/06/19 02:46:51;;;;;;;;;;;;;;;22.35;41.62;101380.03;5073952;28;19935;-79
2023/06/19 02:49:16;;;;;;;;;;;;;;;;;;5077472;28;20421;-79
2023/06/19 02:51:42;;;;;;;;;;;;;;;22.31;41.63;101370.84;5082596;28;19945;-78
2023/06/19 02:54:07;;;;;;;;;;;;;;;22.29;41.85;101381.28;5063364;28;20145;-78
2023/06/19 02:56:32;;;;;;;;;;;;;;;22.28;41.88;101376.94;5078075;28;19916;-79
2023/06/19 02:58:58;;;;;;;;;;;;;;;22.25;41.86;101374.81;5076647;28;19951;-79
2023/06/19 03:01:23;;;;;;;;;;;;;;;22.23;41.92;101368.84;5077651;28;20315;-78
2023/06/19 03:03:49;;;;;;;;;;;;;;;22.23;41.73;101368.84;5078129;28;19924;-79
2023/06/19 03:06:14;;;;;;;;;;;;;;;22.22;42.02;101364.50;5081803;28;19929;-79
2023/06/19 03:08:39;;;;;;;;;;;;;;;22.17;42.31;101373.66;5079758;28;19916;-79
2023/06/19 03:11:05;;;;;;;;;;;;;;;22.18;42.18;101369.78;5081107;28;19928;-79
2023/06/19 03:13:49;;;;;;;;;;;;;;;22.19;41.97;101376.88;5074296;28;19916;-79
2023/06/19 03:16:14;;;;;;;;;;;;;;;22.20;41.96;101370.28;5080748;28;19920;-79
2023/06/19 03:18:40;;;;;;;;;;;;;;;22.22;41.91;101381.69;5083195;28;19923;-79
2023/06/19 03:21:06;;;;;;;;;;;;;;;22.21;42.13;101374.63;5082701;28;19964;-79
2023/06/19 03:23:31;;;;;;;;;;;;;;;22.21;42.17;101379.28;5081552;28;20007;-78
2023/06/19 03:25:57;;;;;;;;;;;;;;;22.20;42.34;101378.47;5068356;28;19926;-79
2023/06/19 03:28:23;;;;;;;;;;;;;;;22.23;42.16;101377.84;5079901;28;19923;-79
2023/06/19 03:30:48;;;;;;;;;;;;;;;22.27;42.37;101380.78;5081859;28;19922;-79
2023/06/19 03:33:13;;;;;;;;;;;;;;;22.30;42.67;101380.97;5081016;28;19955;-79
2023/06/19 03:35:38;;;;;;;;;;;;;;;22.34;42.61;101372.94;5089107;28;19957;-79
2023/06/19 03:38:04;;;;;;;;;;;;;;;22.39;42.54;101372.81;5084825;28;19924;-78
2023/06/19 03:40:29;;;;;;;;;;;;;;;22.45;42.63;101368.84;5084291;28;20400;-79
2023/06/19 03:42:54;;;;;;;;;;;;;;;22.49;42.87;101371.75;5083517;28;19977;-79
2023/06/19 03:45:20;;;;;;;;;;;;;;;22.54;42.61;101368.88;5081472;28;19931;-79
2023/06/19 03:47:45;;;;;;;;;;;;;;;22.58;42.55;101376.13;5082165;28;19916;-79
2023/06/19 03:50:10;;;;;;;;;;;;;;;22.63;42.80;101377.13;5080981;28;20399;-79
2023/06/19 03:52:36;;;;;;;;;;;;;;;22.70;42.85;101372.81;5078906;28;19920;-79
2023/06/19 03:55:02;;;;;;;;;;;;;;;22.76;42.86;101378.94;5084299;28;19991;-79
2023/06/19 03:57:28;;;;;;;;;;;;;;;22.83;42.97;101390.28;5077290;28;20473;-79
2023/06/19 03:59:53;;;;;;;;;;;;;;;22.91;42.93;101397.69;5060799;28;20392;-79
2023/06/19 04:02:19;;;;;;;;;;;;;;;22.96;42.96;101388.53;5079207;28;19917;-79
2023/06/19 04:04:44;;;;;;;;;;;;;;;23.02;42.98;101392.75;5084816;28;19924;-79
2023/06/19 04:07:09;;;;;;;;;;;;;;;23.06;42.85;101400.00;5083580;28;20580;-79
2023/06/19 04:09:35;;;;;;;;;;;;;;;23.12;42.89;101403.38;5079242;28;20400;-79
2023/06/19 04:12:01;;;;;;;;;;;;;;;23.19;42.81;101398.28;5079456;28;19916;-79
2023/06/19 04:14:26;;;;;;;;;;;;;;;23.25;42.89;101401.66;5078189;28;19921;-79
2023/06/19 04:16:51;;;;;;;;;;;;;;;23.30;42.81;101405.06;5080942;28;19997;-79
2023/06/19 04:19:17;;;;;;;;;;;;;;;23.36;42.92;101401.06;5065631;28;19912;-79
2023/06/19 04:21:42;;;;;;;;;;;;;;;23.43;42.98;101408.78;5085479;28;20004;-79
2023/06/19 04:24:08;;;;;;;;;;;;;;;23.51;43.07;101408.00;5086999;28;20268;-79
2023/06/19 04:26:34;;;;;;;;;;;;;;;23.57;42.89;101411.44;5085007;28;19993;-79
2023/06/19 04:29:00;;;;;;;;;;;;;;;23.60;43.02;101413.53;5081991;28;20550;-79
2023/06/19 04:31:26;;;;;;;;;;;;;;;23.61;42.81;101410.47;5081943;28;19963;-79
2023/06/19 04:33:52;;;;;;;;;;;;;;;23.63;43.04;101402.72;5083121;28;19955;-78
2023/06/19 04:36:17;;;;;;;;;;;;;;;23.66;43.00;101406.75;5084731;28;20014;-79
2023/06/19 04:38:43;;;;;;;;;;;;;;;23.66;43.26;101413.03;5083555;28;19920;-79
2023/06/19 04:41:09;;;;;;;;;;;;;;;23.65;43.31;101411.44;5086640;28;19920;-79
2023/06/19 04:43:34;;;;;;;;;;;;;;;23.63;43.18;101418.34;5083795;28;19970;-79
2023/06/19 04:46:00;;;;;;;;;;;;;;;23.63;43.45;101419.16;5083757;28;20461;-80
2023/06/19 04:48:25;;;;;;;;;;;;;;;23.68;43.33;101415.44;5069128;28;19916;-79
2023/06/19 04:50:51;;;;;;;;;;;;;;;23.70;43.46;101418.69;5085810;28;20423;-79
2023/06/19 04:53:17;;;;;;;;;;;;;;;23.73;43.36;101421.59;5083460;28;20040;-79
2023/06/19 04:55:43;;;;;;;;;;;;;;;23.77;43.16;101417.06;5080830;28;20654;-79
2023/06/19 04:58:08;;;;;;;;;;;;;;;23.79;43.54;101416.75;5087272;28;19920;-79
2023/06/19 05:00:34;;;;;;;;;;;;;;;23.85;43.51;101414.66;5064868;28;19920;-79
2023/06/19 05:03:00;;;;;;;;;;;;;;;23.93;43.45;101417.41;5082889;28;19923;-79
2023/06/19 05:05:26;;;;;;;;;;;;;;;24.03;43.51;101427.22;5082747;28;19928;-79
2023/06/19 05:07:52;;;;;;;;;;;;;;;24.10;43.69;101422.88;5080598;28;19964;-79
2023/06/19 05:10:17;;;;;;;;;;;;;;;24.21;43.40;101423.34;5082700;28;19920;-79
2023/06/19 05:12:42;;;;;;;;;;;;;;;24.36;43.52;101427.56;5080365;28;20549;-80
2023/06/19 05:15:08;;;;;;;;;;;;;;;24.48;43.21;101419.47;5083257;28;20283;-79
2023/06/19 05:17:33;;;;;;;;;;;;;;;24.60;43.47;101414.16;5084457;28;19931;-79
2023/06/19 05:19:58;;;;;;;;;;;;;;;24.81;43.35;101422.47;5084385;28;20053;-79
2023/06/19 05:22:24;;;;;;;;;;;;;;;25.04;42.88;101422.22;5081945;28;19999;-79
2023/06/19 05:24:49;;;;;;;;;;;;;;;25.21;42.74;101424.88;5082495;28;20419;-80
2023/06/19 05:27:15;;;;;;;;;;;;;;;25.32;42.73;101425.34;5082201;28;19970;-79
2023/06/19 05:29:40;;;;;;;;;;;;;;;25.41;42.63;101421.38;5078294;28;19928;-79
2023/06/19 05:32:05;;;;;;;;;;;;;;;25.47;42.56;101420.06;5079368;28;19931;-79
2023/06/19 05:34:31;;;;;;;;;;;;;;;25.55;42.46;101421.94;5081679;28;19924;-80
2023/06/19 05:36:58;;;;;;;;;;;;;;;25.62;42.44;101424.16;5081085;28;20049;-79
2023/06/19 05:39:23;;;;;;;;;;;;;;;25.69;42.25;101421.72;5080239;28;20023;-79
2023/06/19 05:41:48;;;;;;;;;;;;;;;25.74;42.11;101427.00;5081897;28;20007;-79
2023/06/19 05:44:18;;;;;;;;;;;;;;;25.80;42.11;101422.13;5082043;28;20606;-80
2023/06/19 05:46:43;;;;;;;;;;;;;;;25.87;42.29;101425.97;5082450;28;19965;-80
2023/06/19 05:49:09;;;;;;;;;;;;;;;25.94;42.25;101422.66;5079491;28;20342;-79
2023/06/19 05:51:34;;;;;;;;;;;;;;;26.03;42.38;101428.06;5078823;28;19942;-79
2023/06/19 05:54:03;;;;;;;;;;;;;;;26.09;42.10;101422.06;5078954;28;19958;-80
2023/06/19 05:56:32;;;;;;;;;;;;;;;26.14;42.23;101435.56;5080285;28;20357;-80
2023/06/19 05:58:58;;;;;;;;;;;;;;;26.20;42.18;101431.47;5087033;28;19916;-79
2023/06/19 06:01:24;;;;;;;;;;;;;;;26.24;42.12;101428.88;5078660;28;19916;-80
2023/06/19 06:03:49;;;;;;;;;;;;;;;26.32;42.12;101438.16;5085650;28;19920;-80
2023/06/19 06:06:14;;;;;;;;;;;;;;;26.36;42.18;101428.13;5080949;28;20354;-79
2023/06/19 06:08:40;;;;;;;;;;;;;;;26.45;42.08;101437.09;5080282;28;20379;-80
2023/06/19 06:11:05;;;;;;;;;;;;;;;26.50;41.98;101429.44;5080984;28;19977;-80
2023/06/19 06:13:31;;;;;;;;;;;;;;;26.59;41.83;101434.84;5081592;28;19965;-79
2023/06/19 06:15:56;;;;;;;;;;;;;;;26.63;41.76;101437.72;5084543;28;20315;-80
2023/06/19 06:18:21;;;;;;;;;;;;;;;26.66;41.63;101437.84;5084391;28;19963;-80
2023/06/19 06:20:47;;;;;;;;;;;;;;;26.67;41.42;101433.13;5079558;28;19923;-80
2023/06/19 06:23:12;;;;;;;;;;;;;;;26.67;41.45;101436.69;5082729;28;19920;-80
2023/06/19 06:25:38;;;;;;;;;;;;;;;26.71;41.46;101434.06;5080817;28;20477;-80
2023/06/19 06:28:03;;;;;;;;;;;;;;;26.74;41.36;101433.38;5081836;28;20448;-80
2023/06/19 06:30:29;;;;;;;;;;;;;;;26.80;41.50;101441.06;5066569;28;19923;-80
2023/06/19 06:32:54;;;;;;;;;;;;;;;26.85;41.53;101433.75;5082069;28;19920;-80
2023/06/19 06:35:19;;;;;;;;;;;;;;;26.90;41.41;101437.06;5079596;28;20015;-80
2023/06/19 06:37:46;;;;;;;;;;;;;;;26.94;41.37;101432.50;5078104;28;19920;-80
2023/06/19 06:40:11;;;;;;;;;;;;;;;26.99;41.57;101434.22;5077831;28;19923;-79
2023/06/19 06:42:37;;;;;;;;;;;;;;;27.04;41.40;101432.06;5077325;28;19924;-80
2023/06/19 06:45:03;;;;;;;;;;;;;;;27.12;41.54;101433.13;5076425;28;20269;-79
2023/06/19 06:47:29;;;;;;;;;;;;;;;27.21;41.36;101428.28;5079449;28;19924;-80
2023/06/19 06:49:54;;;;;;;;;;;;;;;27.34;41.21;101431.84;5079172;28;19928;-80
2023/06/19 06:52:19;;;;;;;;;;;;;;;27.44;41.10;101433.31;5080219;28;19923;-80
2023/06/19 06:54:45;;;;;;;;;;;;;;;27.52;41.03;101430.44;5081563;28;19943;-80
2023/06/19 06:57:10;;;;;;;;;;;;;;;27.59;40.88;101432.59;5078714;28;19931;-80
2023/06/19 06:59:35;;;;;;;;;;;;;;;27.63;40.82;101431.59;5081136;28;19924;-80
2023/06/19 07:02:01;;;;;;;;;;;;;;;27.68;40.88;101433.31;5081491;28;19916;-80
2023/06/19 07:04:26;;;;;;;;;;;;;;;27.78;40.85;101430.06;5082046;28;19947;-80
2023/06/19 07:06:51;;;;;;;;;;;;;;;27.86;40.79;101429.16;5078941;28;19964;-81
2023/06/19 07:09:17;;;;;;;;;;;;;;;27.94;40.80;101430.94;5084149;28;20287;-79
2023/06/19 07:11:42;;;;;;;;;;;;;;;28.03;40.70;101438.28;5079830;28;20006;-80
2023/06/19 07:14:07;;;;;;;;;;;;;;;28.12;40.60;101441.69;5079302;28;19977;-80
2023/06/19 07:16:32;;;;;;;;;;;;;;;28.19;40.57;101439.13;5081455;28;20379;-80
2023/06/19 07:18:58;;;;;;;;;;;;;;;28.29;40.56;101449.66;5064054;28;19920;-80
2023/06/19 07:21:24;;;;;;;;;;;;;;;28.37;40.36;101443.22;5084227;28;19916;-80
2023/06/19 07:23:49;;;;;;;;;;;;;;;28.41;39.89;101449.63;5083783;28;19916;-79
2023/06/19 07:26:14;;;;;;;;;;;;;;;28.44;39.79;101454.44;5079222;28;19979;-80
2023/06/19 07:28:40;;;;;;;;;;;;;;;28.51;39.86;101448.28;5077930;28;19924;-80
2023/06/19 07:31:05;;;;;;;;;;;;;;;28.56;39.78;101451.63;5084245;28;19923;-80
2023/06/19 07:33:31;;;;;;;;;;;;;;;28.62;39.70;101459.63;5080878;28;20066;-81
2023/06/19 07:35:56;;;;;;;;;;;;;;;28.69;39.58;101455.06;5078262;28;19960;-80
2023/06/19 07:38:22;;;;;;;;;;;;;;;28.79;39.89;101453.78;5083694;28;19916;-80
2023/06/19 07:40:47;;;;;;;;;;;;;;;28.88;39.81;101457.97;5076745;28;19916;-80
2023/06/19 07:43:13;;;;;;;;;;;;;;;28.98;39.83;101462.16;5063444;28;20005;-80
2023/06/19 07:45:38;;;;;;;;;;;;;;;29.10;39.59;101466.81;5079430;28;19923;-80
2023/06/19 07:48:03;;;;;;;;;;;;;;;29.22;39.56;101460.38;5083406;28;19923;-80
2023/06/19 07:50:29;;;;;;;;;;;;;;;29.31;39.69;101459.03;5085188;28;19959;-80
2023/06/19 07:52:54;;;;;;;;;;;;;;;29.43;39.81;101455.34;5080603;28;19924;-80
2023/06/19 07:55:19;;;;;;;;;;;;;;;29.53;39.77;101462.31;5080826;28;19977;-80
2023/06/19 07:57:45;;;;;;;;;;;;;;;29.61;39.48;101462.09;5078762;28;19930;-79
2023/06/19 08:00:13;;;;;;;;;;;;;;;29.70;39.20;101459.16;5079148;28;19924;-80
2023/06/19 08:02:39;;;;;;;;;;;;;;;29.76;39.22;101457.72;5083861;28;19952;-80
2023/06/19 08:05:04;;;;;;;;;;;;;;;29.82;39.19;101453.53;5085412;28;20356;-80
2023/06/19 08:07:30;;;;;;;;;;;;;;;29.90;38.89;101463.53;5084177;28;19923;-80
2023/06/19 08:09:55;;;;;;;;;;;;;;;29.98;38.95;101459.78;5083927;28;19920;-79
2023/06/19 08:12:20;;;;;;;;;;;;;;;30.06;39.06;101461.56;5084429;28;19920;-79
2023/06/19 08:14:45;;;;;;;;;;;;;;;30.17;38.83;101456.25;5086815;28;19950;-80
2023/06/19 08:17:11;;;;;;;;;;;;;;;30.25;38.90;101452.44;5086556;28;19920;-79
2023/06/19 08:19:38;;;;;;;;;;;;;;;30.33;38.44;101447.84;5083278;28;19963;-81
2023/06/19 08:22:04;;;;;;;;;;;;;;;30.39;38.13;101460.22;5083825;28;19927;-79
2023/06/19 08:24:29;;;;;;;;;;;;;;;30.42;38.11;101458.69;5083534;28;19916;-83
2023/06/19 08:26:54;;;;;;;;;;;;;;;30.45;38.05;101455.19;5088119;28;19934;-80
2023/06/19 08:29:20;;;;;;;;;;;;;;;30.51;37.98;101459.25;5083209;28;20444;-80
2023/06/19 08:31:45;;;;;;;;;;;;;;;30.60;37.78;101462.59;5087521;28;19978;-80
2023/06/19 08:34:11;;;;;;;;;;;;;;;30.67;37.92;101460.78;5086747;28;19961;-80
2023/06/19 08:36:36;;;;;;;;;;;;;;;30.75;37.81;101463.69;5084231;28;20410;-80
2023/06/19 08:39:02;;;;;;;;;;;;;;;30.84;37.91;101451.19;5087270;28;19962;-80
2023/06/19 08:41:28;;;;;;;;;;;;;;;30.90;37.51;101458.03;5084862;28;19916;-80
2023/06/19 08:43:54;;;;;;;;;;;;;;;30.96;37.43;101458.50;5084287;28;19945;-80
2023/06/19 08:46:19;;;;;;;;;;;;;;;31.03;37.09;101453.09;5083684;28;19928;-80
2023/06/19 08:48:44;;;;;;;;;;;;;;;31.11;36.78;101451.25;5083190;28;21656;-80
2023/06/19 08:51:11;;;;;;;;;;;;;;;31.21;36.89;101456.16;5085785;28;20429;-80
2023/06/19 08:53:37;;;;;;;;;;;;;;;31.31;36.65;101458.31;5082326;28;19916;-80
2023/06/19 08:56:03;;;;;;;;;;;;;;;31.35;36.44;101461.13;5084704;28;19921;-80
2023/06/19 08:58:28;;;;;;;;;;;;;;;31.36;36.13;101451.66;5085540;28;19916;-80
2023/06/19 09:00:54;;;;;;;;;;;;;;;31.34;36.43;101463.09;5082588;28;20037;-80
2023/06/19 09:03:22;;;;;;;;;;;;;;;31.40;36.36;101455.25;5080007;28;19978;-80
2023/06/19 09:05:51;;;;;;;;;;;;;;;31.42;36.16;101459.28;5083827;28;19924;-80
2023/06/19 09:08:17;;;;;;;;;;;;;;;31.43;36.16;101463.66;5081570;28;19920;-80
2023/06/19 09:10:42;;;;;;;;;;;;;;;31.43;35.64;101457.31;5086493;28;19964;-80
2023/06/19 09:13:08;;;;;;;;;;;;;;;31.41;35.27;101456.84;5082069;28;20429;-80
2023/06/19 09:15:36;;;;;;;;;;;;;;;31.42;35.16;101464.00;5083720;28;20007;-80
2023/06/19 09:18:06;;;;;;;;;;;;;;;31.44;35.14;101459.72;5079024;28;19920;-80
2023/06/19 09:20:32;;;;;;;;;;;;;;;31.50;35.11;101455.44;5082717;28;19916;-80
2023/06/19 09:22:58;;;;;;;;;;;;;;;31.52;34.96;101455.06;5086976;28;19916;-80
2023/06/19 09:25:25;;;;;;;;;;;;;;;31.49;35.17;101459.38;5085943;28;19920;-80
2023/06/19 09:27:50;;;;;;;;;;;;;;;31.46;34.84;101448.25;5081355;28;19920;-80
2023/06/19 09:30:16;;;;;;;;;;;;;;;31.48;35.13;101457.78;5083686;28;20387;-80
2023/06/19 09:32:41;;;;;;;;;;;;;;;31.46;35.08;101453.78;5082478;28;19921;-80
2023/06/19 09:35:07;;;;;;;;;;;;;;;31.44;35.17;101456.94;5082110;28;20308;-80
2023/06/19 09:37:32;;;;;;;;;;;;;;;31.50;35.11;101452.66;5080862;28;19931;-80
2023/06/19 09:39:58;;;;;;;;;;;;;;;31.57;35.05;101461.06;5085605;28;19924;-81
2023/06/19 09:42:31;;;;;;;;;;;;;;;31.60;34.88;101455.94;5082812;28;19921;-80
2023/06/19 09:45:06;;;;;;;;;;;;;;;31.59;34.55;101452.38;5083502;28;19932;-79
2023/06/19 09:47:35;;;;;;;;;;;;;;;31.61;34.51;101454.81;5081443;28;19917;-80
2023/06/19 09:50:01;;;;;;;;;;;;;;;31.63;34.65;101447.72;5083901;28;19999;-80
2023/06/19 09:52:27;;;;;;;;;;;;;;;31.69;34.88;101453.72;5081481;28;19924;-80
2023/06/19 09:54:53;;;;;;;;;;;;;;;31.75;34.51;101449.47;5081562;28;20387;-80
2023/06/19 09:57:19;;;;;;;;;;;;;;;31.79;34.46;101453.09;5083665;28;19999;-80
2023/06/19 09:59:49;;;;;;;;;;;;;;;31.87;34.52;101457.53;5081883;28;20043;-80
2023/06/19 10:02:15;;;;;;;;;;;;;;;31.99;34.51;101449.00;5082750;28;19999;-81
2023/06/19 10:04:47;;;;;;;;;;;;;;;32.09;34.62;101459.41;5082439;28;20390;-80
2023/06/19 10:07:17;;;;;;;;;;;;;;;32.17;34.25;101455.56;5084346;28;20384;-81
2023/06/19 10:09:54;;;;;;;;;;;;;;;32.28;34.01;101441.03;5087572;28;19924;-80
2023/06/19 10:12:19;;;;;;;;;;;;;;;32.40;33.90;101446.31;5085126;28;19916;-81
2023/06/19 10:14:47;;;;;;;;;;;;;;;32.47;33.81;101446.38;5080415;28;19930;-82
2023/06/19 10:17:12;;;;;;;;;;;;;;;32.54;33.67;101438.16;5080826;28;19955;-80
2023/06/19 10:19:37;;;;;;;;;;;;;;;32.56;33.71;101440.53;5081919;28;20355;-80
2023/06/19 10:22:03;;;;;;;;;;;;;;;32.58;33.21;101441.75;5082464;28;19924;-80
2023/06/19 10:24:28;;;;;;;;;;;;;;;32.53;32.84;101447.66;5086434;28;19919;-80
2023/06/19 10:27:00;;;;;;;;;;;;;;;32.45;32.92;101440.41;5077432;28;19961;-80
2023/06/19 10:29:27;;;;;;;;;;;;;;;32.33;32.85;101446.25;5078293;28;20045;-80
2023/06/19 10:31:53;;;;;;;;;;;;;;;32.24;33.10;101448.47;5079990;28;19916;-80
2023/06/19 10:34:18;;;;;;;;;;;;;;;32.20;32.91;101442.91;5081318;28;19931;-80
2023/06/19 10:36:44;;;;;;;;;;;;;;;32.22;33.18;101442.53;5083057;28;20010;-80
2023/06/19 10:39:10;;;;;;;;;;;;;;;32.24;32.98;101440.97;5060797;28;19928;-80
2023/06/19 10:41:35;;;;;;;;;;;;;;;32.25;32.55;101444.53;5079160;28;19943;-81
2023/06/19 10:44:03;;;;;;;;;;;;;;;32.32;32.73;101448.22;5076471;28;19931;-80
2023/06/19 10:46:33;;;;;;;;;;;;;;;32.35;32.68;101450.25;5065568;28;19923;-80
2023/06/19 10:49:01;;;;;;;;;;;;;;;32.44;32.42;101442.38;5079169;28;19959;-80
2023/06/19 10:51:29;;;;;;;;;;;;;;;32.45;32.65;101448.75;5081854;28;19923;-79
2023/06/19 10:53:55;;;;;;;;;;;;;;;32.40;32.29;101438.78;5078042;28;20525;-79
2023/06/19 10:56:21;;;;;;;;;;;;;;;32.34;32.07;101442.31;5076943;28;19920;-80
2023/06/19 10:58:46;;;;;;;;;;;;;;;32.27;32.25;101443.00;5078997;28;19926;-80
2023/06/19 11:01:11;;;;;;;;;;;;;;;32.23;32.36;101438.56;5078361;28;19955;-80
2023/06/19 11:03:37;;;;;;;;;;;;;;;32.25;32.38;101442.56;5077076;28;19920;-80
2023/06/19 11:06:02;;;;;;;;;;;;;;;32.30;32.30;101442.25;5080915;28;20018;-80
2023/06/19 11:08:28;;;;;;;;;;;;;;;32.34;32.51;101443.09;5077280;28;19928;-80
2023/06/19 11:10:55;;;;;;;;;;;;;;;32.35;32.38;101441.13;5074421;28;19916;-80
2023/06/19 11:13:20;;;;;;;;;;;;;;;32.34;32.35;101445.88;5056482;28;19916;-81
2023/06/19 11:15:47;;;;;;;;;;;;;;;32.35;32.57;101449.44;5077219;28;19931;-80
2023/06/19 11:18:14;;;;;;;;;;;;;;;32.33;32.56;101438.72;5078515;28;19915;-80
2023/06/19 11:20:50;;;;;;;;;;;;;;;32.36;32.55;101446.28;5075966;28;19931;-80
2023/06/19 11:23:16;;;;;;;;;;;;;;;32.36;32.52;101439.94;5079458;28;20053;-81
2023/06/19 11:25:42;;;;;;;;;;;;;;;32.32;32.65;101439.13;5075268;28;19929;-80
2023/06/19 11:28:11;;;;;;;;;;;;;;;32.32;32.73;101439.13;5080988;28;19920;-80
2023/06/19 11:30:36;;;;;;;;;;;;;;;32.35;32.92;101438.34;5079607;28;20027;-80
2023/06/19 11:33:02;;;;;;;;;;;;;;;32.34;32.76;101431.22;5080900;28;20076;-80
2023/06/19 11:35:34;;;;;;;;;;;;;;;32.38;32.74;101421.75;5077263;28;19927;-81
2023/06/19 11:37:59;;;;;;;;;;;;;;;32.43;32.60;101432.47;5076507;28;20792;-80
2023/06/19 11:40:24;;;;;;;;;;;;;;;32.52;32.56;101417.53;5086769;28;19920;-80
2023/06/19 11:42:53;;;;;;;;;;;;;;;32.57;32.63;101414.38;5085251;28;19920;-80
2023/06/19 11:45:18;;;;;;;;;;;;;;;32.63;32.67;101416.41;5083395;28;19924;-80
2023/06/19 11:47:45;;;;;;;;;;;;;;;32.65;32.53;101408.50;5084470;28;19953;-80
2023/06/19 11:50:10;;;;;;;;;;;;;;;32.65;32.82;101411.28;5079194;28;20018;-79
2023/06/19 11:52:36;;;;;;;;;;;;;;;32.69;32.52;101412.13;5082054;28;19925;-80
2023/06/19 11:55:01;;;;;;;;;;;;;;;32.73;32.60;101415.72;5082391;28;20335;-80
2023/06/19 11:57:26;;;;;;;;;;;;;;;32.78;32.77;101409.03;5077170;28;19955;-80
2023/06/19 11:59:52;;;;;;;;;;;;;;;32.85;32.76;101402.75;5082731;28;19927;-80
2023/06/19 12:02:17;;;;;;;;;;;;;;;32.91;32.72;101399.25;5080886;28;19916;-79
2023/06/19 12:04:42;;;;;;;;;;;;;;;33.02;32.93;101404.88;5079090;28;19967;-81
2023/06/19 12:07:08;;;;;;;;;;;;;;;33.16;32.76;101398.63;5080538;28;20505;-79
2023/06/19 12:09:34;;;;;;;;;;;;;;;33.25;32.76;101390.75;5080193;28;19943;-79
2023/06/19 12:12:00;;;;;;;;;;;;;;;33.37;32.44;101386.88;5077689;28;20423;-80
2023/06/19 12:14:26;;;;;;;;;;;;;;;33.48;32.46;101391.31;5079288;28;20028;-80
2023/06/19 12:16:51;;;;;;;;;;;;;;;33.58;32.18;101387.00;5079759;28;20686;-80
2023/06/19 12:19:17;;;;;;;;;;;;;;;33.68;31.89;101385.44;5084262;28;19920;-80
2023/06/19 12:21:42;;;;;;;;;;;;;;;33.77;31.65;101381.13;5081121;28;20493;-80
2023/06/19 12:24:07;;;;;;;;;;;;;;;33.82;31.56;101386.28;5079607;28;19924;-80
2023/06/19 12:26:36;;;;;;;;;;;;;;;33.82;31.58;101375.19;5078801;28;20668;-80
2023/06/19 12:29:05;;;;;;;;;;;;;;;33.85;31.48;101374.41;5080637;28;19980;-80
2023/06/19 12:31:31;;;;;;;;;;;;;;;33.81;31.37;101362.47;5082298;28;20019;-81